Time;durP1;ratioP1;P1;durP2;ratioP2;P2;SDS_P1;SDS_P2;PMS_P1;PMS_P2;Temp;Humidity;BMP_temperature;BMP_pressure;BME280_temperature;BME280_humidity;BME280_pressure;Samples;Min_cycle;Max_cycle;Signal;HPM_P1;HPM_P2
2022/04/30 00:00:13;;;;;;;6.97;3.67;;;11.30;99.90;;;;;;4168241;28;20038;-63
2022/04/30 00:02:14;;;;;;;7.45;4.28;;;11.30;99.90;;;;;;4171947;28;20033;-63
2022/04/30 00:04:15;;;;;;;6.18;4.00;;;11.30;99.90;;;;;;4168312;28;20044;-62
2022/04/30 00:06:15;;;;;;;8.52;4.15;;;11.30;99.90;;;;;;4171455;28;20496;-63
2022/04/30 00:08:16;;;;;;;7.10;4.13;;;11.20;99.90;;;;;;4171070;28;20522;-64
2022/04/30 00:10:17;;;;;;;7.40;4.20;;;11.20;99.90;;;;;;4171735;28;20076;-63
2022/04/30 00:12:17;;;;;;;8.13;4.93;;;11.30;99.90;;;;;;4175404;28;20171;-63
2022/04/30 00:14:18;;;;;;;5.28;4.15;;;11.20;99.90;;;;;;4170672;28;20029;-63
2022/04/30 00:16:18;;;;;;;9.93;5.10;;;11.20;99.90;;;;;;4168977;28;20039;-63
2022/04/30 00:18:19;;;;;;;7.60;4.25;;;11.10;99.90;;;;;;4174350;28;20037;-63
2022/04/30 00:20:19;;;;;;;7.55;4.18;;;11.20;99.90;;;;;;4173311;28;20104;-63
2022/04/30 00:22:20;;;;;;;6.25;4.38;;;11.20;99.90;;;;;;4173983;28;20048;-63
2022/04/30 00:24:21;;;;;;;9.32;4.68;;;11.20;99.90;;;;;;4170088;28;20025;-63
2022/04/30 00:26:22;;;;;;;6.38;4.18;;;11.20;99.90;;;;;;4173012;28;20040;-63
2022/04/30 00:28:25;;;;;;;8.82;4.60;;;11.20;99.90;;;;;;4170469;28;20042;-63
2022/04/30 00:30:25;;;;;;;;;;;11.10;99.90;;;;;;4173460;28;20120;-63
2022/04/30 00:32:26;;;;;;;7.35;4.43;;;11.00;99.90;;;;;;4169462;28;19909;-63
2022/04/30 00:34:26;;;;;;;10.20;5.15;;;11.00;99.90;;;;;;4170781;28;20041;-63
2022/04/30 00:36:28;;;;;;;5.38;3.80;;;11.00;99.90;;;;;;4165948;28;20033;-62
2022/04/30 00:38:29;;;;;;;7.80;4.38;;;10.90;99.90;;;;;;4168746;28;20033;-62
2022/04/30 00:40:29;;;;;;;7.70;4.25;;;10.90;99.90;;;;;;4167710;28;20092;-64
2022/04/30 00:42:30;;;;;;;10.07;4.55;;;10.90;99.90;;;;;;4173218;28;20370;-63
2022/04/30 00:44:31;;;;;;;7.93;4.50;;;10.80;99.90;;;;;;4176470;28;20587;-63
2022/04/30 00:46:31;;;;;;;8.50;4.85;;;10.80;99.90;;;;;;4171395;28;20056;-63
2022/04/30 00:48:33;;;;;;;6.70;4.30;;;10.60;99.90;;;;;;4177485;28;20449;-63
2022/04/30 00:50:37;;;;;;;6.95;4.38;;;10.60;99.90;;;;;;4172934;28;20165;-63
2022/04/30 00:52:38;;;;;;;8.90;4.47;;;10.70;99.90;;;;;;4172635;28;20052;-63
2022/04/30 00:54:41;;;;;;;6.30;4.15;;;10.60;99.90;;;;;;4168405;28;20423;-63
2022/04/30 00:56:49;;;;;;;5.35;4.10;;;10.60;99.90;;;;;;4172633;28;20109;-63
2022/04/30 00:58:53;;;;;;;11.10;5.15;;;10.70;99.90;;;;;;4168451;28;20209;-63
2022/04/30 01:00:54;;;;;;;6.70;4.68;;;10.70;99.90;;;;;;4166431;28;20064;-62
2022/04/30 01:02:55;;;;;;;13.07;4.78;;;10.70;99.90;;;;;;4169913;28;20485;-63
2022/04/30 01:04:57;;;;;;;5.82;3.75;;;10.60;99.90;;;;;;4172566;28;20025;-63
2022/04/30 01:07:05;;;;;;;9.65;4.40;;;10.60;99.90;;;;;;4171225;28;20036;-63
2022/04/30 01:09:06;;;;;;;6.68;4.00;;;10.60;99.90;;;;;;4168426;28;20171;-63
2022/04/30 01:11:06;;;;;;;8.20;3.90;;;10.60;99.90;;;;;;4176048;28;20503;-63
2022/04/30 01:13:08;;;;;;;6.13;4.03;;;10.60;99.90;;;;;;4172607;28;20051;-63
2022/04/30 01:15:09;;;;;;;5.85;3.92;;;10.60;99.90;;;;;;4168748;28;20033;-63
2022/04/30 01:17:11;;;;;;;6.70;4.00;;;10.60;99.90;;;;;;4170399;28;20457;-63
2022/04/30 01:19:18;;;;;;;7.68;4.65;;;10.50;99.90;;;;;;4177540;28;20380;-62
2022/04/30 01:21:21;;;;;;;6.63;4.18;;;10.50;99.90;;;;;;4172225;28;20488;-63
2022/04/30 01:23:22;;;;;;;7.85;4.32;;;10.40;99.90;;;;;;4170312;28;20045;-63
2022/04/30 01:25:24;;;;;;;7.85;4.00;;;10.40;99.90;;;;;;4168527;28;20041;-62
2022/04/30 01:27:29;;;;;;;5.80;4.23;;;10.50;99.90;;;;;;4169042;28;20341;-62
2022/04/30 01:29:33;;;;;;;5.32;3.95;;;10.40;99.90;;;;;;4173251;28;20055;-65
2022/04/30 01:38:32;;;;;;;9.65;4.60;;;10.30;99.90;;;;;;4163717;28;20388;-63
2022/04/30 01:40:32;;;;;;;8.05;4.32;;;10.30;99.90;;;;;;4172078;28;20040;-63
2022/04/30 01:42:40;;;;;;;6.93;4.15;;;10.30;99.90;;;;;;4172058;28;20492;-63
2022/04/30 01:44:44;;;;;;;7.55;4.20;;;10.20;99.90;;;;;;4172221;28;20029;-63
2022/04/30 01:46:46;;;;;;;5.15;4.13;;;10.20;99.90;;;;;;4172684;28;20044;-63
2022/04/30 01:48:47;;;;;;;6.32;4.05;;;10.20;99.90;;;;;;4169306;28;20029;-63
2022/04/30 01:50:48;;;;;;;6.05;3.63;;;10.20;99.90;;;;;;4172778;28;20100;-62
2022/04/30 01:52:49;;;;;;;6.07;3.67;;;10.20;99.90;;;;;;4170033;28;20029;-63
2022/04/30 01:54:50;;;;;;;14.73;3.53;;;10.20;99.90;;;;;;4170875;28;20102;-62
2022/04/30 01:56:50;;;;;;;7.35;3.90;;;10.20;99.90;;;;;;4162472;28;20476;-62
2022/04/30 01:58:51;;;;;;;7.43;3.72;;;10.20;99.90;;;;;;4176977;28;20033;-63
2022/04/30 02:00:53;;;;;;;8.38;3.63;;;10.20;99.90;;;;;;4168425;28;20156;-63
2022/04/30 02:02:54;;;;;;;5.55;3.72;;;10.20;99.90;;;;;;4166914;28;20047;-62
2022/04/30 02:04:57;;;;;;;3.90;3.30;;;10.20;99.90;;;;;;4168656;28;20112;-63
2022/04/30 02:06:59;;;;;;;6.03;3.40;;;10.20;99.90;;;;;;4166162;28;20033;-62
2022/04/30 02:09:00;;;;;;;6.27;3.73;;;10.10;99.90;;;;;;4170885;28;20561;-63
2022/04/30 02:11:01;;;;;;;8.68;4.10;;;10.10;99.90;;;;;;4170199;28;20044;-63
2022/04/30 02:13:03;;;;;;;6.22;3.63;;;10.10;99.90;;;;;;4169180;28;20029;-63
2022/04/30 02:15:05;;;;;;;7.47;3.20;;;10.10;99.90;;;;;;4169652;28;20041;-64
2022/04/30 02:17:06;;;;;;;4.83;3.20;;;10.10;99.90;;;;;;4171302;28;20032;-63
2022/04/30 02:19:07;;;;;;;5.53;3.40;;;10.20;99.90;;;;;;4171757;28;20281;-63
2022/04/30 02:21:08;;;;;;;5.25;3.97;;;10.20;99.90;;;;;;4168605;28;20370;-62
2022/04/30 02:23:10;;;;;;;5.47;3.97;;;10.20;99.90;;;;;;4166903;28;20041;-62
2022/04/30 02:25:12;;;;;;;7.28;3.78;;;10.20;99.90;;;;;;4174287;28;20041;-63
2022/04/30 02:27:14;;;;;;;6.00;3.90;;;10.10;99.90;;;;;;4173314;28;20037;-62
2022/04/30 02:29:14;;;;;;;5.75;3.58;;;10.10;99.90;;;;;;4168231;28;20515;-63
2022/04/30 02:31:23;;;;;;;4.93;3.40;;;10.00;99.90;;;;;;4169764;28;20036;-62
2022/04/30 02:33:23;;;;;;;5.47;3.15;;;10.10;99.90;;;;;;4169206;28;20038;-62
2022/04/30 02:35:29;;;;;;;10.02;4.18;;;10.00;99.90;;;;;;4170660;28;20056;-63
2022/04/30 02:37:29;;;;;;;4.55;3.42;;;10.10;99.90;;;;;;4168672;28;20029;-62
2022/04/30 02:39:31;;;;;;;4.53;3.65;;;10.00;99.90;;;;;;4171062;28;20041;-63
2022/04/30 02:41:32;;;;;;;5.03;3.95;;;10.00;99.90;;;;;;4171768;28;20099;-63
2022/04/30 02:43:32;;;;;;;6.18;3.38;;;10.00;99.90;;;;;;4171882;28;20451;-62
2022/04/30 02:45:35;;;;;;;4.47;3.20;;;10.00;99.90;;;;;;4173469;28;20029;-60
2022/04/30 02:47:38;;;;;;;7.97;4.32;;;10.00;99.90;;;;;;4170369;28;20026;-63
2022/04/30 02:49:38;;;;;;;;;;;10.00;99.90;;;;;;4168416;28;20116;-62
2022/04/30 02:51:39;;;;;;;5.63;3.85;;;10.00;99.90;;;;;;4172229;28;20416;-62
2022/04/30 02:53:39;;;;;;;5.95;3.63;;;10.00;99.90;;;;;;4169893;28;20037;-62
2022/04/30 02:55:40;;;;;;;4.40;3.47;;;10.00;99.90;;;;;;4168806;28;20119;-62
2022/04/30 03:00:07;;;;;;;7.07;3.70;;;10.00;99.90;;;;;;4167641;28;20040;-64
2022/04/30 03:02:07;;;;;;;5.13;3.80;;;9.90;99.90;;;;;;4170148;28;20041;-62
2022/04/30 03:04:08;;;;;;;9.57;4.65;;;9.90;99.90;;;;;;4173426;28;20484;-63
2022/04/30 03:06:09;;;;;;;7.75;3.83;;;9.80;99.90;;;;;;4177949;28;20098;-62
2022/04/30 03:08:12;;;;;;;6.30;3.63;;;9.80;99.90;;;;;;4172962;28;20108;-62
2022/04/30 03:10:13;;;;;;;5.53;3.90;;;9.70;99.90;;;;;;4173493;28;20431;-63
2022/04/30 03:12:14;;;;;;;6.38;3.67;;;9.70;99.90;;;;;;4178127;28;20037;-63
2022/04/30 03:14:15;;;;;;;10.20;4.47;;;9.70;99.90;;;;;;4176192;28;20025;-62
2022/04/30 03:23:19;;;;;;;7.57;4.10;;;9.70;99.90;;;;;;4154658;28;20090;-63
2022/04/30 03:25:19;;;;;;;6.25;3.83;;;9.70;99.90;;;;;;4173923;28;20029;-63
2022/04/30 03:27:20;;;;;;;6.55;3.70;;;9.70;99.90;;;;;;4176263;28;20048;-62
2022/04/30 03:29:21;;;;;;;5.88;3.85;;;9.60;99.90;;;;;;4173431;28;20041;-63
2022/04/30 03:31:21;;;;;;;7.25;4.72;;;9.60;99.90;;;;;;4173420;28;20025;-63
2022/04/30 03:33:22;;;;;;;6.43;4.00;;;9.60;99.90;;;;;;4168603;28;20025;-63
2022/04/30 03:35:23;;;;;;;8.77;4.30;;;9.60;99.90;;;;;;4176174;28;21368;-63
2022/04/30 03:37:24;;;;;;;8.70;4.80;;;9.60;99.90;;;;;;4175969;28;20029;-62
2022/04/30 03:39:24;;;;;;;6.78;3.88;;;9.50;99.90;;;;;;4165483;28;20029;-62
2022/04/30 03:41:25;;;;;;;7.53;3.70;;;9.60;99.90;;;;;;4173464;28;20028;-62
2022/04/30 03:43:25;;;;;;;7.47;4.32;;;9.50;99.90;;;;;;4172247;28;20088;-61
2022/04/30 03:45:26;;;;;;;11.63;4.45;;;9.50;99.90;;;;;;4171638;28;20037;-63
2022/04/30 03:47:27;;;;;;;7.57;4.38;;;9.50;99.90;;;;;;4171373;28;20091;-62
2022/04/30 03:49:27;;;;;;;9.32;4.00;;;9.50;99.90;;;;;;4174723;28;20025;-62
2022/04/30 03:51:28;;;;;;;8.52;5.03;;;9.50;99.90;;;;;;4174361;28;20018;-62
2022/04/30 03:53:29;;;;;;;9.93;5.03;;;9.50;99.90;;;;;;4177583;28;20028;-62
2022/04/30 03:55:29;;;;;;;7.50;4.53;;;9.40;99.90;;;;;;4176983;28;20452;-63
2022/04/30 03:57:31;;;;;;;10.45;5.15;;;9.50;99.90;;;;;;4172664;28;20051;-62
2022/04/30 03:59:32;;;;;;;7.18;4.60;;;9.40;99.90;;;;;;4174652;28;20034;-63
2022/04/30 04:01:35;;;;;;;7.28;4.50;;;9.40;99.90;;;;;;4175989;28;20112;-63
2022/04/30 04:03:36;;;;;;;7.22;4.57;;;9.30;99.90;;;;;;4171640;28;20507;-62
2022/04/30 04:05:38;;;;;;;6.68;4.13;;;9.30;99.90;;;;;;4175285;28;20033;-63
2022/04/30 04:07:42;;;;;;;6.68;4.75;;;9.30;99.90;;;;;;4172462;28;20025;-62
2022/04/30 04:09:42;;;;;;;6.20;4.65;;;9.30;99.90;;;;;;4178699;28;20021;-62
2022/04/30 04:11:43;;;;;;;7.80;4.88;;;9.30;99.90;;;;;;4170154;28;20033;-62
2022/04/30 04:18:22;;;;;;;8.85;4.93;;;9.20;99.90;;;;;;4176068;28;20480;-62
2022/04/30 04:20:26;;;;;;;7.18;4.78;;;9.10;99.90;;;;;;4171659;28;20044;-63
2022/04/30 04:22:28;;;;;;;6.53;4.68;;;9.10;99.90;;;;;;4171565;28;20407;-63
2022/04/30 04:26:49;;;;;;;7.03;4.68;;;9.10;99.90;;;;;;4172884;28;20044;-63
2022/04/30 04:28:50;;;;;;;6.07;4.40;;;9.00;99.90;;;;;;4173505;28;24399;-63
2022/04/30 04:30:51;;;;;;;7.57;4.88;;;9.00;99.90;;;;;;4171581;28;20041;-63
2022/04/30 04:32:52;;;;;;;6.43;4.32;;;9.00;99.90;;;;;;4173887;28;20033;-63
2022/04/30 04:34:52;;;;;;;7.18;5.07;;;9.00;99.90;;;;;;4173853;28;20029;-63
2022/04/30 04:36:53;;;;;;;8.93;6.03;;;9.00;99.90;;;;;;4174800;28;20447;-63
2022/04/30 04:38:53;;;;;;;8.10;5.18;;;9.00;99.90;;;;;;4174141;28;20048;-62
2022/04/30 04:40:54;;;;;;;5.72;4.88;;;9.00;99.90;;;;;;4173075;28;20036;-62
2022/04/30 04:42:54;;;;;;;7.55;5.20;;;9.00;99.90;;;;;;4170677;28;20037;-63
2022/04/30 04:44:55;;;;;;;9.27;5.53;;;8.90;99.90;;;;;;4172357;28;20029;-63
2022/04/30 04:46:56;;;;;;;9.88;5.60;;;8.90;99.90;;;;;;4173856;28;20067;-63
2022/04/30 04:48:56;;;;;;;10.38;5.80;;;8.90;99.90;;;;;;4169891;28;20496;-62
2022/04/30 04:50:57;;;;;;;7.78;5.28;;;8.90;99.90;;;;;;4174820;28;20396;-63
2022/04/30 04:52:58;;;;;;;8.73;5.18;;;8.90;99.90;;;;;;4169966;28;20124;-62
2022/04/30 04:54:58;;;;;;;9.30;5.32;;;8.80;99.90;;;;;;4172850;28;20451;-62
2022/04/30 04:56:59;;;;;;;9.38;6.65;;;8.80;99.90;;;;;;4174292;28;20400;-62
2022/04/30 04:59:00;;;;;;;8.30;5.32;;;8.80;99.90;;;;;;4176785;28;20059;-62
2022/04/30 05:01:00;;;;;;;11.65;6.03;;;8.90;99.90;;;;;;4172801;28;20032;-63
2022/04/30 05:03:01;;;;;;;12.77;6.57;;;8.90;99.90;;;;;;4175251;28;20503;-62
2022/04/30 05:05:02;;;;;;;10.35;5.95;;;8.90;99.90;;;;;;4173653;28;20475;-64
2022/04/30 05:07:03;;;;;;;7.18;5.28;;;8.90;99.90;;;;;;4174854;28;20033;-63
2022/04/30 05:09:04;;;;;;;9.50;6.22;;;8.90;99.90;;;;;;4174353;28;20082;-62
2022/04/30 05:11:04;;;;;;;10.60;6.07;;;8.90;99.90;;;;;;4174293;28;20040;-63
2022/04/30 05:13:05;;;;;;;8.73;5.82;;;9.00;99.90;;;;;;4171341;28;20018;-63
2022/04/30 05:15:06;;;;;;;8.82;6.10;;;8.90;99.90;;;;;;4166946;28;20034;-64
2022/04/30 05:17:07;;;;;;;8.70;5.82;;;9.00;99.90;;;;;;4174808;28;20543;-63
2022/04/30 05:19:07;;;;;;;9.63;6.00;;;9.10;99.90;;;;;;4172320;28;20055;-63
2022/04/30 05:21:08;;;;;;;10.88;6.68;;;9.10;99.90;;;;;;4171159;28;20051;-63
2022/04/30 05:23:09;;;;;;;11.43;6.07;;;9.10;99.90;;;;;;4174002;28;20045;-64
2022/04/30 05:25:10;;;;;;;11.27;6.07;;;9.10;99.90;;;;;;4175435;28;20044;-65
2022/04/30 05:27:10;;;;;;;10.73;6.78;;;9.20;99.90;;;;;;4174226;28;20053;-63
2022/04/30 05:29:11;;;;;;;11.77;6.13;;;9.20;99.90;;;;;;4174878;28;20037;-63
2022/04/30 05:31:11;;;;;;;9.98;6.10;;;9.30;99.90;;;;;;4174629;28;20484;-63
2022/04/30 05:33:12;;;;;;;10.65;6.00;;;9.30;99.90;;;;;;4174476;28;20037;-63
2022/04/30 05:35:13;;;;;;;7.50;6.00;;;9.30;99.90;;;;;;4172979;28;20589;-63
2022/04/30 05:37:13;;;;;;;13.80;7.65;;;9.30;99.90;;;;;;4175025;28;20048;-63
2022/04/30 05:39:14;;;;;;;9.05;6.40;;;9.30;99.90;;;;;;4175683;28;20098;-63
2022/04/30 05:41:14;;;;;;;10.38;6.85;;;9.40;99.90;;;;;;4173520;28;20029;-63
2022/04/30 05:43:15;;;;;;;10.15;6.68;;;9.40;99.90;;;;;;4171596;28;20500;-63
2022/04/30 05:45:15;;;;;;;10.57;6.55;;;9.40;99.90;;;;;;4171745;28;20029;-64
2022/04/30 05:47:18;;;;;;;11.57;7.18;;;9.50;99.90;;;;;;4175568;28;20037;-63
2022/04/30 05:49:19;;;;;;;8.93;6.80;;;9.60;99.90;;;;;;4166319;28;20512;-63
2022/04/30 05:51:20;;;;;;;13.55;7.32;;;9.60;99.90;;;;;;4172333;28;20033;-63
2022/04/30 05:53:21;;;;;;;9.70;6.53;;;9.70;99.90;;;;;;4172098;28;20103;-63
2022/04/30 05:55:22;;;;;;;11.82;6.80;;;9.80;99.90;;;;;;4172520;28;20067;-64
2022/04/30 05:57:22;;;;;;;10.05;6.72;;;9.80;99.90;;;;;;4175948;28;20047;-63
2022/04/30 05:59:23;;;;;;;16.83;7.55;;;9.80;99.90;;;;;;4172138;28;20025;-63
2022/04/30 06:01:24;;;;;;;12.48;7.43;;;9.90;99.90;;;;;;4174486;28;20032;-63
2022/04/30 06:03:24;;;;;;;14.20;7.93;;;9.90;99.90;;;;;;4171630;28;20051;-63
2022/04/30 06:05:25;;;;;;;9.82;7.07;;;9.90;99.90;;;;;;4169358;28;20041;-63
2022/04/30 06:07:25;;;;;;;12.90;7.07;;;9.90;99.90;;;;;;4172797;28;20049;-63
2022/04/30 06:09:26;;;;;;;11.80;7.10;;;10.00;99.90;;;;;;4168438;28;20040;-63
2022/04/30 06:11:27;;;;;;;13.75;7.00;;;10.00;99.90;;;;;;4170168;28;20034;-63
2022/04/30 06:13:30;;;;;;;11.60;7.35;;;10.00;99.90;;;;;;4173398;28;20037;-63
2022/04/30 06:15:31;;;;;;;10.40;7.03;;;10.10;99.90;;;;;;4171228;28;20067;-63
2022/04/30 06:17:32;;;;;;;11.50;6.97;;;10.10;99.90;;;;;;4175254;28;20087;-63
2022/04/30 06:19:32;;;;;;;11.85;7.03;;;10.20;99.90;;;;;;4173759;28;20036;-64
2022/04/30 06:21:33;;;;;;;12.60;7.95;;;10.20;99.90;;;;;;4166175;28;20049;-62
2022/04/30 06:23:33;;;;;;;15.57;8.45;;;10.30;99.90;;;;;;4155837;28;20033;-64
2022/04/30 06:25:37;;;;;;;11.82;6.80;;;10.40;99.90;;;;;;4156509;28;20061;-64
2022/04/30 06:27:38;;;;;;;15.75;8.02;;;10.40;99.90;;;;;;4163834;28;20037;-63
2022/04/30 06:29:39;;;;;;;14.65;8.30;;;10.50;99.90;;;;;;4176983;28;20037;-65
2022/04/30 06:31:40;;;;;;;12.70;7.15;;;10.70;99.90;;;;;;4170632;28;20029;-63
2022/04/30 06:33:40;;;;;;;12.15;7.57;;;11.00;99.90;;;;;;4169584;28;20534;-64
2022/04/30 06:35:41;;;;;;;10.88;7.90;;;11.40;99.90;;;;;;4175372;28;20037;-63
2022/04/30 06:37:41;;;;;;;12.52;7.55;;;11.70;99.90;;;;;;4178718;28;20124;-63
2022/04/30 06:39:45;;;;;;;10.32;6.53;;;12.10;99.90;;;;;;4175439;28;20064;-63
2022/04/30 06:41:45;;;;;;;13.50;6.95;;;12.40;99.90;;;;;;4175434;28;20112;-63
2022/04/30 06:43:46;;;;;;;9.35;5.90;;;12.60;99.90;;;;;;4178038;28;20476;-63
2022/04/30 06:45:46;;;;;;;9.55;6.25;;;12.80;99.90;;;;;;4170462;28;20499;-63
2022/04/30 06:47:47;;;;;;;10.20;6.32;;;12.90;99.90;;;;;;4178236;28;20031;-64
2022/04/30 06:49:50;;;;;;;8.40;5.95;;;13.00;99.90;;;;;;4177955;28;20028;-63
2022/04/30 06:51:51;;;;;;;10.75;6.40;;;13.00;99.90;;;;;;4173337;28;20029;-63
2022/04/30 06:58:40;;;;;;;10.90;6.57;;;13.00;99.90;;;;;;4178824;28;20056;-64
2022/04/30 07:02:56;;;;;;;12.10;7.22;;;13.10;99.90;;;;;;4179080;28;20479;-64
2022/04/30 07:04:57;;;;;;;10.02;6.53;;;13.10;99.90;;;;;;4175769;28;20041;-64
2022/04/30 07:06:58;;;;;;;9.82;6.88;;;13.10;99.90;;;;;;4173174;28;20095;-63
2022/04/30 07:08:58;;;;;;;10.40;6.85;;;13.20;99.90;;;;;;4177963;28;20059;-64
2022/04/30 07:11:01;;;;;;;11.35;7.15;;;13.30;99.90;;;;;;4176148;28;20430;-64
2022/04/30 07:13:01;;;;;;;13.20;7.20;;;13.50;99.90;;;;;;4174248;28;20433;-64
2022/04/30 07:15:02;;;;;;;9.40;6.53;;;13.60;99.90;;;;;;4177845;28;20025;-67
2022/04/30 07:17:10;;;;;;;9.48;6.07;;;13.80;99.90;;;;;;4167713;28;20029;-64
2022/04/30 07:19:10;;;;;;;10.00;6.40;;;13.90;99.90;;;;;;4176934;28;20393;-64
2022/04/30 07:21:11;;;;;;;9.88;6.32;;;14.10;99.90;;;;;;4173090;28;20091;-64
2022/04/30 07:23:12;;;;;;;8.00;5.55;;;14.20;99.90;;;;;;4173245;28;20110;-64
2022/04/30 07:25:12;;;;;;;14.07;6.40;;;14.30;99.90;;;;;;4175269;28;20044;-64
2022/04/30 07:27:13;;;;;;;9.80;5.60;;;14.50;99.90;;;;;;4169773;28;20516;-64
2022/04/30 07:29:13;;;;;;;7.10;4.72;;;14.60;99.90;;;;;;4177342;28;20375;-64
2022/04/30 07:31:14;;;;;;;8.98;5.22;;;14.80;99.90;;;;;;4176357;28;20118;-64
2022/04/30 07:33:14;;;;;;;9.80;4.68;;;14.60;99.90;;;;;;4174286;28;20442;-64
2022/04/30 07:35:15;;;;;;;6.32;4.50;;;14.60;99.90;;;;;;4174035;28;20049;-64
2022/04/30 07:37:16;;;;;;;8.70;4.85;;;14.40;99.90;;;;;;4172882;28;20041;-64
2022/04/30 07:39:17;;;;;;;6.55;4.40;;;14.60;99.90;;;;;;4174248;28;20500;-63
2022/04/30 07:41:17;;;;;;;9.55;5.10;;;14.70;99.90;;;;;;4173241;28;20048;-64
2022/04/30 07:43:18;;;;;;;6.28;4.65;;;14.20;99.90;;;;;;4174620;28;20041;-64
2022/04/30 07:45:18;;;;;;;10.05;5.72;;;14.50;99.90;;;;;;4173986;28;20037;-64
2022/04/30 07:47:19;;;;;;;8.68;5.15;;;14.70;99.90;;;;;;4172211;28;20041;-64
2022/04/30 07:49:20;;;;;;;8.98;5.30;;;14.90;99.90;;;;;;4171611;28;20030;-64
2022/04/30 07:51:33;;;;;;;6.78;4.80;;;14.90;99.90;;;;;;4177253;28;20893;-63
2022/04/30 07:53:34;;;;;;;8.05;4.35;;;15.10;99.90;;;;;;4176623;28;20112;-65
2022/04/30 07:55:35;;;;;;;6.03;3.78;;;15.20;99.90;;;;;;4172607;28;20033;-64
2022/04/30 07:57:35;;;;;;;6.28;4.28;;;15.30;99.90;;;;;;4173099;28;20059;-64
2022/04/30 07:59:36;;;;;;;5.57;3.70;;;15.50;99.90;;;;;;4173277;28;20404;-64
2022/04/30 08:01:36;;;;;;;8.60;4.47;;;15.50;99.90;;;;;;4169912;28;20107;-64
2022/04/30 08:03:40;;;;;;;6.95;3.67;;;15.60;99.90;;;;;;4171769;28;20025;-64
2022/04/30 08:05:40;;;;;;;6.07;4.07;;;15.80;99.90;;;;;;4175905;28;20036;-63
2022/04/30 08:07:41;;;;;;;6.65;4.30;;;15.90;99.90;;;;;;4175336;28;20511;-64
2022/04/30 08:09:41;;;;;;;6.93;3.72;;;16.00;99.90;;;;;;4176711;28;20481;-63
2022/04/30 08:11:42;;;;;;;7.20;4.80;;;16.10;99.90;;;;;;4175120;28;20571;-63
2022/04/30 08:13:43;;;;;;;5.55;4.32;;;16.20;99.90;;;;;;4171133;28;20550;-63
2022/04/30 08:15:43;;;;;;;5.28;3.90;;;16.30;99.90;;;;;;4175585;28;20037;-63
2022/04/30 08:17:44;;;;;;;6.10;3.95;;;16.40;99.90;;;;;;4171908;28;20110;-64
2022/04/30 08:19:44;;;;;;;6.85;3.40;;;16.30;99.90;;;;;;4173062;28;20028;-64
2022/04/30 08:21:46;;;;;;;6.20;3.58;;;16.40;99.90;;;;;;4172865;28;20178;-63
2022/04/30 08:23:47;;;;;;;5.93;3.05;;;16.50;99.40;;;;;;4170677;28;20496;-63
2022/04/30 08:25:47;;;;;;;5.72;3.63;;;16.50;97.90;;;;;;4172550;28;20035;-64
2022/04/30 08:27:48;;;;;;;5.65;4.18;;;16.60;98.90;;;;;;4177022;28;20082;-64
2022/04/30 08:29:48;;;;;;;6.13;3.53;;;16.60;99.50;;;;;;4174888;28;20116;-63
2022/04/30 08:31:49;;;;;;;6.00;3.08;;;16.60;99.40;;;;;;4173466;28;20025;-63
2022/04/30 08:33:51;;;;;;;6.38;3.78;;;16.60;98.90;;;;;;4175998;28;20424;-64
2022/04/30 08:35:53;;;;;;;5.13;3.60;;;16.60;98.00;;;;;;4176816;28;20087;-63
2022/04/30 08:37:54;;;;;;;5.03;3.00;;;16.50;97.60;;;;;;4171420;28;20025;-64
2022/04/30 08:39:55;;;;;;;3.63;2.78;;;16.30;98.10;;;;;;4168313;28;20075;-64
2022/04/30 08:41:55;;;;;;;3.92;2.67;;;16.30;96.10;;;;;;4174866;28;20040;-64
2022/04/30 08:43:56;;;;;;;4.15;2.60;;;16.30;97.00;;;;;;4169042;28;20040;-63
2022/04/30 08:45:58;;;;;;;3.42;2.30;;;16.30;96.40;;;;;;4168980;28;20034;-64
2022/04/30 08:48:01;;;;;;;6.47;3.30;;;16.20;96.00;;;;;;4173032;28;20037;-63
2022/04/30 08:50:02;;;;;;;6.28;3.42;;;15.70;93.60;;;;;;4166978;28;20037;-63
2022/04/30 08:52:03;;;;;;;6.07;3.75;;;15.30;93.10;;;;;;4171384;28;20033;-63
2022/04/30 08:54:04;;;;;;;4.45;3.13;;;15.40;96.60;;;;;;4177985;28;20040;-63
2022/04/30 08:56:08;;;;;;;5.60;3.20;;;15.70;96.30;;;;;;4162807;28;20087;-63
2022/04/30 08:58:09;;;;;;;8.00;3.83;;;15.80;96.90;;;;;;4170103;28;20044;-64
2022/04/30 09:00:10;;;;;;;5.15;3.30;;;16.00;96.80;;;;;;4170189;28;20094;-65
2022/04/30 09:02:11;;;;;;;13.38;5.90;;;16.10;96.10;;;;;;4173457;28;20053;-63
2022/04/30 09:04:13;;;;;;;9.07;4.90;;;16.30;95.90;;;;;;4177564;28;20036;-64
2022/04/30 09:06:18;;;;;;;4.53;3.25;;;16.30;95.60;;;;;;4170680;28;20064;-62
2022/04/30 09:08:18;;;;;;;5.82;2.90;;;16.40;95.70;;;;;;4170007;28;20030;-62
2022/04/30 09:10:37;;;;;;;3.70;2.42;;;16.50;93.70;;;;;;4175213;28;20064;-62
2022/04/30 09:12:41;;;;;;;5.50;3.00;;;16.50;94.50;;;;;;4168346;28;20392;-62
2022/04/30 09:14:42;;;;;;;3.17;2.53;;;16.60;94.60;;;;;;4171397;28;20842;-62
2022/04/30 09:16:43;;;;;;;4.80;2.38;;;16.60;91.10;;;;;;4176265;28;20037;-62
2022/04/30 09:18:44;;;;;;;3.38;2.13;;;16.50;92.30;;;;;;4176195;28;20040;-61
2022/04/30 09:20:53;;;;;;;3.60;2.47;;;16.60;93.60;;;;;;4171271;28;20040;-62
2022/04/30 09:22:53;;;;;;;6.88;2.55;;;16.60;93.00;;;;;;4173850;28;21372;-62
2022/04/30 09:24:54;;;;;;;3.53;2.47;;;16.70;93.90;;;;;;4166998;28;20277;-62
2022/04/30 09:27:03;;;;;;;2.80;2.10;;;16.70;93.00;;;;;;4170410;28;20313;-62
2022/04/30 09:29:23;;;;;;;4.13;2.35;;;16.70;89.60;;;;;;4170022;28;20025;-62
2022/04/30 09:31:24;;;;;;;3.78;2.30;;;16.80;91.70;;;;;;4167696;28;20053;-63
2022/04/30 09:33:24;;;;;;;3.13;2.30;;;15.80;85.60;;;;;;4174057;28;20531;-63
2022/04/30 09:37:46;;;;;;;4.40;2.15;;;15.90;89.50;;;;;;4168830;28;20797;-62
2022/04/30 09:39:47;;;;;;;6.60;3.17;;;16.10;91.50;;;;;;4171605;28;20034;-62
2022/04/30 09:41:47;;;;;;;5.32;2.50;;;15.40;87.40;;;;;;4173779;28;20499;-62
2022/04/30 09:44:01;;;;;;;4.45;2.30;;;15.50;88.30;;;;;;4176413;28;20032;-62
2022/04/30 09:46:06;;;;;;;3.53;2.10;;;15.70;91.70;;;;;;4166987;28;20033;-62
2022/04/30 09:55:07;;;;;;;6.47;2.72;;;16.30;93.20;;;;;;4165809;28;20061;-62
2022/04/30 09:57:09;;;;;;;3.45;2.35;;;16.20;93.00;;;;;;4174447;28;20033;-63
2022/04/30 09:59:12;;;;;;;4.63;2.72;;;16.30;92.90;;;;;;4162006;28;20116;-62
2022/04/30 10:01:13;;;;;;;4.40;2.20;;;16.20;92.30;;;;;;4166230;28;20123;-63
2022/04/30 10:03:15;;;;;;;3.83;2.20;;;16.30;92.20;;;;;;4171436;28;20444;-62
2022/04/30 10:05:16;;;;;;;3.40;2.60;;;16.40;93.10;;;;;;4168448;28;20421;-62
2022/04/30 10:07:19;;;;;;;2.70;2.13;;;16.40;92.90;;;;;;4174004;28;20477;-62
2022/04/30 10:09:38;;;;;;;3.15;2.10;;;16.50;93.80;;;;;;4174904;28;20036;-62
2022/04/30 10:11:48;;;;;;;4.03;2.15;;;16.60;93.50;;;;;;4166032;28;20033;-63
2022/04/30 10:13:52;;;;;;;3.90;2.30;;;16.70;93.60;;;;;;4174158;28;20112;-62
2022/04/30 10:15:56;;;;;;;3.55;1.83;;;16.70;92.60;;;;;;4174758;28;20021;-62
2022/04/30 10:17:57;;;;;;;3.05;2.03;;;16.90;91.70;;;;;;4174336;28;20470;-63
2022/04/30 10:20:01;;;;;;;4.00;2.00;;;16.90;92.40;;;;;;4173412;28;20544;-63
2022/04/30 10:22:13;;;;;;;3.40;2.25;;;16.90;92.80;;;;;;4168459;28;20033;-63
2022/04/30 10:24:14;;;;;;;2.92;1.90;;;16.90;91.60;;;;;;4169907;28;20500;-63
2022/04/30 10:26:15;;;;;;;5.40;2.03;;;17.00;92.20;;;;;;4170944;28;20127;-63
2022/04/30 10:28:23;;;;;;;5.10;2.40;;;16.90;89.90;;;;;;4165115;28;20045;-63
2022/04/30 10:30:27;;;;;;;4.78;1.80;;;17.00;91.80;;;;;;4171722;28;20033;-63
2022/04/30 10:32:29;;;;;;;3.15;1.60;;;17.00;91.40;;;;;;4172592;28;20030;-63
2022/04/30 10:34:31;;;;;;;3.08;2.05;;;17.10;90.70;;;;;;4174170;28;20040;-63
2022/04/30 10:36:36;;;;;;;2.22;1.70;;;17.20;88.30;;;;;;4171878;28;20484;-62
2022/04/30 10:38:37;;;;;;;2.63;1.77;;;16.80;84.20;;;;;;4173873;28;20037;-64
2022/04/30 10:40:47;;;;;;;3.83;1.77;;;17.00;89.80;;;;;;4172533;28;20036;-63
2022/04/30 10:42:47;;;;;;;2.92;1.80;;;17.10;92.20;;;;;;4169754;28;20033;-63
2022/04/30 10:44:54;;;;;;;2.60;1.75;;;17.20;90.90;;;;;;4171287;28;20103;-63
2022/04/30 10:46:55;;;;;;;5.10;1.90;;;16.90;82.60;;;;;;4165427;28;20124;-63
2022/04/30 10:48:55;;;;;;;3.03;1.85;;;16.90;83.00;;;;;;4174463;28;20025;-63
2022/04/30 10:51:05;;;;;;;3.70;2.05;;;17.00;88.40;;;;;;4166759;28;20052;-64
2022/04/30 10:53:08;;;;;;;3.30;1.90;;;17.10;88.30;;;;;;4159551;28;20055;-63
2022/04/30 10:55:10;;;;;;;2.15;1.77;;;17.20;91.40;;;;;;4167691;28;20082;-66
2022/04/30 10:57:11;;;;;;;2.10;1.90;;;17.10;82.90;;;;;;4168291;28;20466;-63
2022/04/30 10:59:22;;;;;;;2.92;2.10;;;16.80;79.10;;;;;;4174363;28;20069;-63
2022/04/30 11:01:23;;;;;;;3.65;1.90;;;16.70;79.20;;;;;;4171864;28;20043;-63
2022/04/30 11:03:31;;;;;;;2.75;1.88;;;16.10;78.10;;;;;;4170594;28;20048;-63
2022/04/30 11:05:31;;;;;;;2.67;1.30;;;16.40;85.40;;;;;;4165615;28;20049;-63
2022/04/30 11:07:32;;;;;;;1.38;1.15;;;16.60;89.80;;;;;;4171457;28;20036;-63
2022/04/30 11:09:41;;;;;;;4.32;1.58;;;16.80;89.20;;;;;;4167834;28;20115;-63
2022/04/30 11:11:46;;;;;;;4.25;1.90;;;16.90;87.10;;;;;;4170319;28;20112;-64
2022/04/30 11:14:01;;;;;;;2.50;1.80;;;17.00;89.50;;;;;;4172497;28;20108;-63